Time;durP1;ratioP1;P1;durP2;ratioP2;P2;SDS_P1;SDS_P2;PMS_P1;PMS_P2;Temp;Humidity;BMP_temperature;BMP_pressure;BME280_temperature;BME280_humidity;BME280_pressure;Samples;Min_cycle;Max_cycle;Signal;HPM_P1;HPM_P2
2021/01/23 00:01:10;;;;;;;26.88;10.27;;;2.80;99.90;;;;;;5088550;28;20299;-67
2021/01/23 00:03:35;;;;;;;23.45;10.73;;;2.70;99.90;;;;;;5056369;28;20123;-67
2021/01/23 00:06:01;;;;;;;21.77;9.65;;;2.80;99.90;;;;;;5088341;28;20427;-68
2021/01/23 00:08:26;;;;;;;20.85;9.27;;;2.80;99.90;;;;;;5088486;28;20481;-66
2021/01/23 00:10:52;;;;;;;20.20;8.98;;;2.90;99.90;;;;;;5078124;28;20024;-67
2021/01/23 00:13:17;;;;;;;24.17;8.60;;;2.80;99.90;;;;;;5090365;28;20060;-70
2021/01/23 00:15:43;;;;;;;21.38;9.15;;;2.80;99.90;;;;;;5088464;28;20016;-65
2021/01/23 00:18:09;;;;;;;22.10;9.20;;;2.80;99.90;;;;;;5047085;28;20033;-68
2021/01/23 00:20:34;;;;;;;19.73;9.02;;;2.90;99.90;;;;;;5077907;28;20029;-70
2021/01/23 00:23:00;;;;;;;15.02;8.38;;;2.90;99.90;;;;;;5082367;28;20392;-68
2021/01/23 00:25:26;;;;;;;21.13;8.85;;;3.00;99.90;;;;;;5089201;28;20107;-68
2021/01/23 00:27:51;;;;;;;21.00;8.98;;;2.90;99.90;;;;;;5088165;28;20031;-68
2021/01/23 00:30:17;;;;;;;21.73;8.75;;;2.90;99.90;;;;;;5058435;28;20028;-69
2021/01/23 00:32:42;;;;;;;28.33;9.63;;;3.00;99.90;;;;;;5098995;28;20067;-66
2021/01/23 00:35:09;;;;;;;22.65;9.57;;;3.00;99.90;;;;;;5098341;28;20024;-67
2021/01/23 00:37:34;;;;;;;22.27;9.25;;;3.00;99.90;;;;;;5089937;28;20449;-68
2021/01/23 00:40:00;;;;;;;24.55;10.23;;;3.00;99.90;;;;;;5098173;28;20520;-67
2021/01/23 00:42:26;;;;;;;21.05;9.32;;;3.00;99.90;;;;;;5077378;28;20029;-68
2021/01/23 00:44:51;;;;;;;23.02;10.60;;;3.00;99.90;;;;;;5069467;28;20028;-68
2021/01/23 00:47:19;;;;;;;21.98;10.00;;;2.90;99.90;;;;;;5084497;28;20023;-68
2021/01/23 00:49:45;;;;;;;19.38;9.05;;;3.00;99.90;;;;;;5089738;28;20032;-66
2021/01/23 00:52:10;;;;;;;23.75;10.85;;;2.90;99.90;;;;;;5085895;28;20099;-66
2021/01/23 00:54:36;;;;;;;21.05;10.25;;;2.90;99.90;;;;;;5085701;28;20555;-67
2021/01/23 00:57:01;;;;;;;23.15;10.45;;;2.90;99.90;;;;;;5075429;28;20035;-68
2021/01/23 00:59:28;;;;;;;18.67;10.20;;;2.90;99.90;;;;;;5065982;28;20150;-67
2021/01/23 01:01:53;;;;;;;27.98;12.32;;;3.00;99.90;;;;;;5068225;28;20043;-67
2021/01/23 01:04:19;;;;;;;19.60;10.30;;;3.00;99.90;;;;;;5087874;28;20033;-66
2021/01/23 01:06:44;;;;;;;22.35;10.40;;;3.00;99.90;;;;;;5069890;28;20468;-67
2021/01/23 01:09:11;;;;;;;21.25;11.27;;;3.00;99.90;;;;;;5088407;28;20131;-66
2021/01/23 01:11:37;;;;;;;23.85;11.07;;;3.00;99.90;;;;;;5091660;28;20032;-65
2021/01/23 01:14:02;;;;;;;27.52;12.63;;;3.10;99.90;;;;;;5067531;28;572862;-67
2021/01/23 01:16:28;;;;;;;16.60;10.98;;;3.10;99.90;;;;;;5088370;28;20302;-66
2021/01/23 01:18:55;;;;;;;20.08;12.25;;;3.20;99.90;;;;;;5098178;28;20034;-66
2021/01/23 01:21:20;;;;;;;22.65;12.18;;;3.20;99.90;;;;;;5100462;28;20024;-67
2021/01/23 01:23:46;;;;;;;21.40;11.77;;;3.20;99.90;;;;;;5081982;28;20115;-65
2021/01/23 01:26:11;;;;;;;23.58;12.10;;;3.30;99.90;;;;;;5088460;28;20035;-67
2021/01/23 01:28:37;;;;;;;23.20;12.18;;;3.30;99.90;;;;;;5092109;28;20016;-65
2021/01/23 01:31:04;;;;;;;28.58;12.23;;;3.30;99.90;;;;;;5087218;28;20016;-65
2021/01/23 01:33:29;;;;;;;17.20;10.45;;;3.40;99.90;;;;;;5070514;28;20448;-66
2021/01/23 01:35:55;;;;;;;21.45;12.38;;;3.40;99.90;;;;;;5075727;28;20135;-68
2021/01/23 01:38:21;;;;;;;23.27;11.43;;;3.40;99.90;;;;;;5101294;28;20051;-66
2021/01/23 01:40:46;;;;;;;29.23;13.35;;;3.40;99.90;;;;;;5057505;28;20397;-66
2021/01/23 01:43:12;;;;;;;23.60;13.13;;;3.40;99.90;;;;;;5083682;28;20051;-67
2021/01/23 01:45:37;;;;;;;25.05;11.65;;;3.40;99.90;;;;;;5103421;28;20031;-66
2021/01/23 01:48:04;;;;;;;25.85;13.55;;;3.40;99.90;;;;;;5089156;28;20540;-66
2021/01/23 01:50:29;;;;;;;28.77;14.68;;;3.40;99.90;;;;;;5070766;28;20050;-66
2021/01/23 01:52:55;;;;;;;26.35;14.27;;;3.50;99.90;;;;;;5056319;28;20037;-68
2021/01/23 01:55:35;;;;;;;22.50;12.88;;;3.40;99.90;;;;;;5068675;28;20209;-66
2021/01/23 01:58:01;;;;;;;24.77;12.52;;;3.40;99.90;;;;;;5088009;28;20082;-65
2021/01/23 02:00:27;;;;;;;23.85;13.48;;;3.50;99.90;;;;;;5082778;28;20528;-65
2021/01/23 02:03:41;;;;;;;20.83;12.75;;;3.50;99.90;;;;;;5060476;28;20028;-65
2021/01/23 02:06:15;;;;;;;28.65;12.15;;;3.50;99.90;;;;;;5069462;28;20094;-65
2021/01/23 02:09:10;;;;;;;27.90;12.88;;;3.50;99.90;;;;;;5089179;28;20027;-69
2021/01/23 02:11:59;;;;;;;24.27;12.30;;;3.40;99.90;;;;;;5081695;28;20012;-65
2021/01/23 02:14:34;;;;;;;25.27;13.38;;;3.50;99.90;;;;;;5080863;28;20055;-65
2021/01/23 02:17:06;;;;;;;30.90;12.70;;;3.50;99.90;;;;;;5089024;28;20477;-66
2021/01/23 02:19:51;;;;;;;24.73;13.40;;;3.60;99.90;;;;;;5095584;28;20019;-67
2021/01/23 02:22:32;;;;;;;22.98;12.45;;;3.60;99.90;;;;;;5069646;28;20025;-67
2021/01/23 02:25:01;;;;;;;26.63;12.82;;;3.60;99.90;;;;;;5107345;28;20022;-67
2021/01/23 02:27:49;;;;;;;26.27;13.50;;;3.70;99.90;;;;;;5090475;28;20018;-65
2021/01/23 02:30:22;;;;;;;20.92;11.75;;;3.70;99.90;;;;;;5039261;28;20067;-65
2021/01/23 02:32:53;;;;;;;25.65;12.98;;;3.70;99.90;;;;;;5081403;28;20040;-67
2021/01/23 02:35:19;;;;;;;25.92;13.73;;;3.70;99.90;;;;;;5099523;28;20476;-66
2021/01/23 02:37:46;;;;;;;25.23;12.77;;;3.70;99.90;;;;;;5100844;28;20032;-66
2021/01/23 02:40:12;;;;;;;23.33;13.77;;;3.70;99.90;;;;;;5099949;28;20028;-65
2021/01/23 02:42:39;;;;;;;21.73;13.10;;;3.70;99.90;;;;;;5092033;28;20067;-65
2021/01/23 02:45:10;;;;;;;28.95;13.05;;;3.70;99.90;;;;;;5082617;28;20063;-65
2021/01/23 02:47:37;;;;;;;25.92;13.55;;;3.70;99.90;;;;;;5077970;28;20054;-66
2021/01/23 02:50:06;;;;;;;27.85;12.10;;;3.70;99.90;;;;;;5087340;28;20025;-65
2021/01/23 02:52:41;;;;;;;28.08;13.88;;;3.70;99.90;;;;;;5083055;28;20032;-66
2021/01/23 02:55:11;;;;;;;24.70;13.80;;;3.70;99.90;;;;;;5087749;28;20136;-66
2021/01/23 02:57:39;;;;;;;21.73;13.65;;;3.70;99.90;;;;;;5077603;28;20020;-66
2021/01/23 03:00:08;;;;;;;22.02;13.43;;;3.70;99.90;;;;;;5060865;28;20560;-66
2021/01/23 03:02:44;;;;;;;30.05;14.40;;;3.70;99.90;;;;;;5091868;28;20032;-65
2021/01/23 03:05:11;;;;;;;26.85;13.02;;;3.70;99.90;;;;;;5061520;28;20054;-66
2021/01/23 03:07:37;;;;;;;21.63;12.52;;;3.70;99.90;;;;;;5092218;28;20031;-66
2021/01/23 03:10:07;;;;;;;33.47;13.98;;;3.70;99.90;;;;;;5092422;28;20028;-65
2021/01/23 03:12:33;;;;;;;31.05;13.55;;;3.70;99.90;;;;;;5075645;28;20032;-66
2021/01/23 03:14:59;;;;;;;24.67;12.10;;;3.70;99.90;;;;;;5075332;28;20040;-66
2021/01/23 03:17:25;;;;;;;23.67;14.02;;;3.70;99.90;;;;;;5084530;28;20039;-65
2021/01/23 03:19:50;;;;;;;25.00;13.60;;;3.70;99.90;;;;;;5085073;28;20465;-65
2021/01/23 03:22:16;;;;;;;29.27;14.40;;;3.70;99.90;;;;;;5090377;28;20123;-65
2021/01/23 03:24:42;;;;;;;27.60;13.18;;;3.60;99.90;;;;;;5092146;28;20024;-67
2021/01/23 03:27:07;;;;;;;23.52;13.30;;;3.60;99.90;;;;;;5084265;28;20031;-65
2021/01/23 03:29:33;;;;;;;24.65;13.38;;;3.60;99.90;;;;;;5091850;28;20024;-65
2021/01/23 03:31:58;;;;;;;23.77;14.63;;;3.50;99.90;;;;;;5077861;28;20046;-64
2021/01/23 03:34:24;;;;;;;22.13;13.10;;;3.60;99.90;;;;;;5044937;28;20058;-65
2021/01/23 03:36:49;;;;;;;25.17;13.77;;;3.50;99.90;;;;;;5091502;28;20024;-66
2021/01/23 03:39:15;;;;;;;25.17;13.95;;;3.50;99.90;;;;;;5091158;28;20022;-66
2021/01/23 03:41:40;;;;;;;31.73;14.13;;;3.50;99.90;;;;;;5090880;28;20397;-65
2021/01/23 03:44:06;;;;;;;25.73;13.63;;;3.50;99.90;;;;;;5090576;28;20052;-66
2021/01/23 03:46:33;;;;;;;22.85;13.52;;;3.50;99.90;;;;;;5072911;28;20089;-65
2021/01/23 03:48:58;;;;;;;29.80;13.82;;;3.50;99.90;;;;;;5091279;28;20062;-67
2021/01/23 03:51:24;;;;;;;24.35;12.82;;;3.50;99.90;;;;;;5091559;28;20052;-65
2021/01/23 03:53:49;;;;;;;20.70;12.73;;;3.50;99.90;;;;;;5036271;28;20067;-66
2021/01/23 03:56:16;;;;;;;26.75;13.50;;;3.50;99.90;;;;;;5090131;28;20612;-66
2021/01/23 03:58:42;;;;;;;22.52;13.60;;;3.50;99.90;;;;;;5091119;28;20040;-66
2021/01/23 04:01:07;;;;;;;22.63;12.75;;;3.50;99.90;;;;;;5089494;28;20020;-66
2021/01/23 04:03:35;;;;;;;25.10;12.85;;;3.50;99.90;;;;;;5091200;28;20036;-66
2021/01/23 04:06:01;;;;;;;24.25;12.82;;;3.50;99.90;;;;;;5088518;28;20020;-67
2021/01/23 04:08:26;;;;;;;23.23;13.93;;;3.50;99.90;;;;;;5078396;28;20039;-67
2021/01/23 04:10:52;;;;;;;23.65;13.38;;;3.50;99.90;;;;;;5089064;28;20115;-65
2021/01/23 04:13:17;;;;;;;25.30;13.63;;;3.40;99.90;;;;;;5089454;28;20044;-66
2021/01/23 04:15:44;;;;;;;27.88;14.23;;;3.40;99.90;;;;;;5090372;28;20020;-67
2021/01/23 04:18:11;;;;;;;25.13;13.48;;;3.40;99.90;;;;;;5090906;28;20032;-65
2021/01/23 04:20:38;;;;;;;22.30;11.77;;;3.30;99.90;;;;;;5088592;28;20031;-66
2021/01/23 04:23:04;;;;;;;20.52;11.73;;;3.30;99.90;;;;;;5089633;28;20039;-66
2021/01/23 04:25:30;;;;;;;18.70;11.10;;;3.40;99.90;;;;;;5090064;28;20039;-66
2021/01/23 04:27:56;;;;;;;20.15;11.43;;;3.40;99.90;;;;;;5089502;28;20462;-67
2021/01/23 04:30:24;;;;;;;19.33;11.90;;;3.50;99.90;;;;;;5090616;28;20046;-66
2021/01/23 04:32:50;;;;;;;16.95;10.52;;;3.50;99.90;;;;;;5089565;28;20032;-66
2021/01/23 04:35:16;;;;;;;16.00;10.05;;;3.60;99.90;;;;;;5089796;28;20194;-66
2021/01/23 04:37:41;;;;;;;18.55;9.68;;;3.60;99.90;;;;;;5088493;28;20087;-68
2021/01/23 04:40:09;;;;;;;15.10;8.88;;;3.70;99.90;;;;;;5054565;28;20070;-67
2021/01/23 04:42:38;;;;;;;17.02;9.00;;;3.70;99.90;;;;;;5087676;28;20039;-65
2021/01/23 04:45:06;;;;;;;21.27;10.07;;;3.70;99.90;;;;;;5079500;28;20236;-67
2021/01/23 04:47:33;;;;;;;14.57;9.50;;;3.70;99.90;;;;;;5076220;28;20063;-70
2021/01/23 04:49:58;;;;;;;16.05;9.05;;;3.70;99.90;;;;;;5089618;28;20012;-66
2021/01/23 04:52:24;;;;;;;14.90;8.65;;;3.70;99.90;;;;;;5089089;28;20055;-67
2021/01/23 04:54:50;;;;;;;16.23;8.30;;;3.80;99.90;;;;;;5057911;28;20500;-65
2021/01/23 04:57:15;;;;;;;14.38;7.80;;;3.80;99.90;;;;;;5080878;28;20059;-66
2021/01/23 04:59:41;;;;;;;16.65;9.23;;;3.80;99.90;;;;;;5087113;28;20055;-67
2021/01/23 05:02:20;;;;;;;14.65;7.97;;;3.80;99.90;;;;;;5088935;28;20028;-66
2021/01/23 05:05:01;;;;;;;11.57;7.72;;;3.80;99.90;;;;;;5088893;28;20031;-65
2021/01/23 05:07:35;;;;;;;13.90;7.40;;;3.80;99.90;;;;;;5089629;28;20031;-66
2021/01/23 05:10:23;;;;;;;16.65;8.07;;;3.90;99.90;;;;;;5086776;28;20020;-66
2021/01/23 05:12:53;;;;;;;13.77;8.45;;;3.90;99.90;;;;;;5087165;28;20036;-66
2021/01/23 05:15:21;;;;;;;16.33;7.72;;;3.90;99.90;;;;;;5088254;28;20036;-66
2021/01/23 05:17:54;;;;;;;15.50;8.30;;;4.00;99.90;;;;;;5089319;28;20028;-67
2021/01/23 05:20:40;;;;;;;15.90;7.53;;;4.00;99.90;;;;;;5075884;28;20028;-69
2021/01/23 05:23:22;;;;;;;13.40;7.68;;;4.00;99.90;;;;;;5082557;28;20506;-67
2021/01/23 05:25:53;;;;;;;15.25;7.38;;;4.00;99.90;;;;;;5067295;28;20020;-66
2021/01/23 05:28:26;;;;;;;14.05;7.85;;;4.00;99.90;;;;;;5067432;28;20024;-66
2021/01/23 05:30:52;;;;;;;9.98;7.60;;;4.00;99.90;;;;;;5083335;28;20048;-66
2021/01/23 05:33:29;;;;;;;17.50;7.28;;;4.00;99.90;;;;;;5087447;28;20543;-66
2021/01/23 05:36:09;;;;;;;16.02;8.50;;;4.00;99.90;;;;;;5088128;28;20426;-65
2021/01/23 05:38:43;;;;;;;11.27;7.97;;;4.00;99.90;;;;;;5059957;28;20031;-66
2021/01/23 05:41:13;;;;;;;15.27;8.05;;;4.00;99.90;;;;;;5081808;28;20358;-65
2021/01/23 05:43:44;;;;;;;18.02;7.88;;;4.00;99.90;;;;;;5086647;28;20020;-66
2021/01/23 05:46:18;;;;;;;21.70;7.75;;;4.00;99.90;;;;;;5084075;28;20428;-66
2021/01/23 05:48:48;;;;;;;19.92;7.60;;;4.00;99.90;;;;;;5081657;28;20465;-65
2021/01/23 05:51:15;;;;;;;12.32;7.25;;;4.00;99.90;;;;;;5086532;28;20032;-67
2021/01/23 05:53:41;;;;;;;13.20;7.30;;;4.00;99.90;;;;;;5081889;28;20374;-64
2021/01/23 05:56:07;;;;;;;13.63;7.20;;;4.00;99.90;;;;;;5084670;28;20024;-66
2021/01/23 05:58:35;;;;;;;10.70;6.88;;;4.10;99.90;;;;;;5082007;28;20021;-66
2021/01/23 06:01:15;;;;;;;14.48;7.43;;;4.10;99.90;;;;;;5083927;28;20465;-65
2021/01/23 06:03:50;;;;;;;20.52;7.93;;;4.10;99.90;;;;;;5083422;28;20028;-66
2021/01/23 06:06:16;;;;;;;16.63;7.82;;;4.10;99.90;;;;;;5086210;28;20036;-65
2021/01/23 06:08:52;;;;;;;14.15;6.82;;;4.10;99.90;;;;;;5086716;28;20469;-66
2021/01/23 06:11:18;;;;;;;12.18;6.47;;;4.10;99.90;;;;;;5084493;28;20035;-68
2021/01/23 06:13:55;;;;;;;19.02;7.10;;;4.10;99.90;;;;;;5083778;28;20040;-68
2021/01/23 06:16:33;;;;;;;14.88;6.57;;;4.10;99.90;;;;;;5082764;28;20033;-67
2021/01/23 06:19:00;;;;;;;10.10;6.47;;;4.10;99.90;;;;;;5081897;28;20355;-67
2021/01/23 06:21:44;;;;;;;12.07;6.97;;;4.10;99.90;;;;;;5085830;28;20023;-65
2021/01/23 06:24:12;;;;;;;8.55;6.32;;;4.10;99.90;;;;;;5083068;28;20027;-67
2021/01/23 06:27:07;;;;;;;11.18;5.97;;;4.10;99.90;;;;;;5067534;28;20078;-68
2021/01/23 06:29:35;;;;;;;11.63;6.75;;;4.10;99.90;;;;;;5060724;28;20043;-66
2021/01/23 06:32:13;;;;;;;13.15;6.90;;;4.00;99.90;;;;;;5085624;28;20110;-68
2021/01/23 06:34:49;;;;;;;15.07;7.00;;;4.00;99.90;;;;;;5084979;28;20111;-65
2021/01/23 06:37:41;;;;;;;10.48;6.70;;;4.00;99.90;;;;;;5085865;28;20039;-66
2021/01/23 06:40:15;;;;;;;10.05;6.38;;;4.00;99.90;;;;;;5083823;28;20246;-66
2021/01/23 06:42:48;;;;;;;19.80;7.22;;;4.00;99.90;;;;;;5083695;28;20468;-70
2021/01/23 06:45:19;;;;;;;17.70;7.28;;;4.10;99.90;;;;;;5085404;28;20429;-68
2021/01/23 06:47:56;;;;;;;12.68;7.32;;;4.00;99.90;;;;;;5082175;28;20377;-65
2021/01/23 06:50:38;;;;;;;11.07;7.30;;;4.10;99.90;;;;;;5080118;28;20095;-67
2021/01/23 06:53:06;;;;;;;13.68;6.95;;;4.10;99.90;;;;;;5079505;28;20481;-67
2021/01/23 06:55:48;;;;;;;14.02;7.13;;;4.10;99.90;;;;;;5089074;28;20024;-66
2021/01/23 06:58:25;;;;;;;13.77;7.05;;;4.10;99.90;;;;;;5095528;28;20047;-68
2021/01/23 07:00:53;;;;;;;13.70;6.85;;;4.00;99.90;;;;;;5066491;28;20143;-67
2021/01/23 07:03:19;;;;;;;16.75;7.18;;;4.00;99.90;;;;;;5084941;28;20016;-65
2021/01/23 07:05:50;;;;;;;12.52;6.82;;;4.00;99.90;;;;;;5088387;28;20115;-67
2021/01/23 07:08:19;;;;;;;15.77;6.78;;;4.00;99.90;;;;;;5084305;28;20032;-67
2021/01/23 07:10:45;;;;;;;12.13;5.30;;;4.00;99.90;;;;;;5067866;28;20032;-66
2021/01/23 07:13:11;;;;;;;10.23;5.13;;;4.00;99.90;;;;;;5083393;28;20048;-66
2021/01/23 07:15:38;;;;;;;11.60;4.40;;;4.00;99.90;;;;;;5083601;28;20379;-67
2021/01/23 07:18:13;;;;;;;12.25;4.18;;;4.00;99.90;;;;;;5085854;28;20032;-67
2021/01/23 07:20:39;;;;;;;9.95;3.67;;;4.00;99.90;;;;;;5090499;28;20016;-67
2021/01/23 07:23:05;;;;;;;11.82;4.22;;;4.00;99.90;;;;;;5054046;28;20028;-67
2021/01/23 07:25:31;;;;;;;8.55;4.43;;;4.00;99.90;;;;;;5089955;28;20407;-65
2021/01/23 07:27:57;;;;;;;10.40;4.28;;;4.00;99.90;;;;;;5084825;28;20032;-67
2021/01/23 07:30:23;;;;;;;10.50;4.22;;;4.00;99.90;;;;;;5087927;28;20024;-68
2021/01/23 07:32:48;;;;;;;14.07;4.93;;;4.00;99.90;;;;;;5090956;28;20414;-65
2021/01/23 07:35:15;;;;;;;10.35;4.35;;;4.00;99.90;;;;;;5090485;28;20048;-67
2021/01/23 07:37:45;;;;;;;6.05;4.55;;;3.90;99.90;;;;;;5088218;28;20035;-67
2021/01/23 07:40:20;;;;;;;14.93;4.45;;;3.80;99.90;;;;;;5086084;28;20021;-66
2021/01/23 07:42:46;;;;;;;10.90;4.00;;;3.80;99.90;;;;;;5070814;28;20138;-66
2021/01/23 07:45:13;;;;;;;8.57;4.25;;;3.80;99.90;;;;;;5087266;28;20019;-67
2021/01/23 07:47:40;;;;;;;13.63;4.43;;;3.80;99.90;;;;;;5086841;28;20043;-67
2021/01/23 07:50:13;;;;;;;15.82;3.83;;;3.80;99.90;;;;;;5086474;28;20429;-66
2021/01/23 07:52:40;;;;;;;15.57;4.53;;;3.80;99.90;;;;;;5086448;28;20032;-66
2021/01/23 07:55:08;;;;;;;11.90;3.92;;;3.80;99.90;;;;;;5085886;28;20020;-66
2021/01/23 07:57:35;;;;;;;10.10;4.43;;;3.80;99.90;;;;;;5087458;28;20029;-64
2021/01/23 08:00:00;;;;;;;11.50;4.35;;;3.80;99.90;;;;;;5085727;28;20028;-68
2021/01/23 08:02:26;;;;;;;14.32;5.10;;;3.80;99.90;;;;;;5088263;28;20024;-67
2021/01/23 08:04:56;;;;;;;10.35;4.15;;;3.80;99.90;;;;;;5088705;28;20039;-66
2021/01/23 08:07:29;;;;;;;11.13;4.32;;;3.80;99.90;;;;;;5088576;28;20027;-68
2021/01/23 08:10:13;;;;;;;7.13;3.95;;;3.80;99.90;;;;;;5067952;28;20495;-68
2021/01/23 08:12:42;;;;;;;10.32;3.95;;;3.80;99.90;;;;;;5069894;28;20089;-65
2021/01/23 08:15:11;;;;;;;11.15;3.67;;;3.70;99.90;;;;;;5067403;28;20545;-68
2021/01/23 08:17:45;;;;;;;17.27;4.43;;;3.80;99.90;;;;;;5088636;28;20063;-68
2021/01/23 08:20:28;;;;;;;14.35;5.43;;;3.80;99.90;;;;;;5065784;28;20028;-68
2021/01/23 08:23:10;;;;;;;12.00;4.53;;;3.80;99.90;;;;;;5085996;28;20035;-66
2021/01/23 08:25:37;;;;;;;7.78;4.43;;;3.80;99.90;;;;;;5087026;28;20077;-69
2021/01/23 08:28:04;;;;;;;13.18;4.82;;;3.80;99.90;;;;;;5086471;28;20036;-69
2021/01/23 08:30:30;;;;;;;6.90;4.32;;;3.80;99.90;;;;;;5087848;28;20023;-66
2021/01/23 08:32:56;;;;;;;7.93;4.20;;;3.80;99.90;;;;;;5089127;28;20130;-68
2021/01/23 08:35:22;;;;;;;8.88;4.75;;;3.80;99.90;;;;;;5089085;28;20549;-66
2021/01/23 08:37:49;;;;;;;11.25;5.25;;;3.80;99.90;;;;;;5087430;28;20024;-66
2021/01/23 08:40:22;;;;;;;14.27;4.85;;;3.90;99.90;;;;;;5071288;28;20017;-66
2021/01/23 08:42:48;;;;;;;13.77;5.78;;;3.90;99.90;;;;;;5086422;28;20025;-66
2021/01/23 08:45:15;;;;;;;9.02;5.50;;;4.00;99.90;;;;;;5087842;28;20063;-67
2021/01/23 08:47:40;;;;;;;11.27;4.93;;;4.00;99.90;;;;;;5069850;28;20051;-66
2021/01/23 08:50:07;;;;;;;11.48;5.22;;;4.10;99.90;;;;;;5089108;28;20020;-68
2021/01/23 08:52:32;;;;;;;13.13;6.15;;;4.10;99.90;;;;;;5087080;28;20478;-69
2021/01/23 08:54:58;;;;;;;9.93;5.13;;;4.20;99.90;;;;;;5085679;28;20024;-67
2021/01/23 08:57:23;;;;;;;11.57;5.72;;;4.20;99.90;;;;;;5085908;28;20016;-69
2021/01/23 08:59:49;;;;;;;16.30;5.22;;;4.30;99.90;;;;;;5067263;28;20252;-68
2021/01/23 09:02:15;;;;;;;14.27;5.50;;;4.40;99.90;;;;;;5069672;28;20032;-68
2021/01/23 09:04:41;;;;;;;18.15;5.70;;;4.40;99.90;;;;;;5086538;28;20016;-67
2021/01/23 09:07:10;;;;;;;10.50;5.68;;;4.40;99.90;;;;;;5086485;28;20107;-68
2021/01/23 09:09:35;;;;;;;12.98;5.70;;;4.40;99.90;;;;;;5085841;28;20028;-68
2021/01/23 09:12:01;;;;;;;10.40;4.70;;;4.50;99.90;;;;;;5086588;28;20174;-68
2021/01/23 09:14:27;;;;;;;12.60;5.57;;;4.60;99.90;;;;;;5068342;28;20469;-67
2021/01/23 09:16:53;;;;;;;10.63;5.43;;;4.60;99.90;;;;;;5085539;28;20400;-68
2021/01/23 09:19:20;;;;;;;13.30;5.65;;;4.50;99.90;;;;;;5087108;28;20116;-69
2021/01/23 09:21:45;;;;;;;11.20;5.25;;;4.50;99.90;;;;;;5086527;28;20529;-67
2021/01/23 09:24:11;;;;;;;15.57;6.03;;;4.40;99.90;;;;;;5068740;28;20123;-66
2021/01/23 09:26:37;;;;;;;9.38;4.53;;;4.40;99.90;;;;;;5086700;28;21182;-68
2021/01/23 09:29:03;;;;;;;14.05;5.50;;;4.30;99.90;;;;;;5085721;28;20076;-68
2021/01/23 09:31:29;;;;;;;11.88;5.72;;;4.30;99.90;;;;;;5087362;28;20488;-68
2021/01/23 09:33:54;;;;;;;12.43;4.95;;;4.30;99.90;;;;;;5084031;28;20048;-68
2021/01/23 09:36:20;;;;;;;10.88;5.22;;;4.30;99.90;;;;;;5085612;28;20051;-68
2021/01/23 09:38:46;;;;;;;16.20;6.15;;;4.30;99.90;;;;;;5085919;28;20425;-67
2021/01/23 09:41:12;;;;;;;12.88;5.47;;;4.30;99.90;;;;;;5086740;28;20103;-66
2021/01/23 09:43:39;;;;;;;14.73;5.72;;;4.30;99.90;;;;;;5086462;28;20389;-69
2021/01/23 09:46:05;;;;;;;12.93;5.63;;;4.30;99.90;;;;;;5081205;28;20024;-66
2021/01/23 09:48:30;;;;;;;13.25;6.28;;;4.30;99.90;;;;;;5086805;28;20024;-66
2021/01/23 09:50:56;;;;;;;12.88;6.32;;;4.40;99.90;;;;;;5085286;28;20016;-67
2021/01/23 09:53:21;;;;;;;12.52;5.68;;;4.50;99.90;;;;;;5081350;28;20032;-69
2021/01/23 09:55:47;;;;;;;12.85;5.15;;;4.50;99.90;;;;;;5083966;28;20062;-68
2021/01/23 09:58:13;;;;;;;14.85;5.22;;;4.50;99.90;;;;;;5089208;28;20477;-68
2021/01/23 10:00:38;;;;;;;14.38;5.05;;;4.60;99.90;;;;;;5071386;28;20481;-66
2021/01/23 10:03:04;;;;;;;13.75;5.40;;;4.70;99.90;;;;;;5087597;28;20101;-67
2021/01/23 10:05:30;;;;;;;13.10;5.65;;;4.70;99.90;;;;;;5087059;28;20491;-68
2021/01/23 10:07:56;;;;;;;12.80;5.65;;;4.80;99.90;;;;;;5082648;28;20793;-67
2021/01/23 10:10:22;;;;;;;14.05;5.45;;;4.90;99.90;;;;;;5077525;28;20024;-67
2021/01/23 10:12:48;;;;;;;12.85;4.72;;;4.90;99.90;;;;;;5088026;28;20063;-67
2021/01/23 10:15:14;;;;;;;9.27;4.57;;;5.00;99.90;;;;;;5086181;28;20509;-67
2021/01/23 10:17:41;;;;;;;10.68;5.05;;;5.10;99.90;;;;;;5084932;28;20376;-68
2021/01/23 10:20:07;;;;;;;10.18;4.25;;;5.20;99.90;;;;;;5083800;28;20025;-67
2021/01/23 10:22:32;;;;;;;10.50;5.22;;;5.30;99.90;;;;;;5086538;28;20059;-67
2021/01/23 10:24:58;;;;;;;14.73;4.57;;;5.30;99.90;;;;;;5083133;28;20476;-67
2021/01/23 10:27:24;;;;;;;9.55;4.03;;;5.40;99.90;;;;;;5085941;28;20113;-66
2021/01/23 10:29:51;;;;;;;11.40;4.43;;;5.30;99.90;;;;;;5086884;28;20095;-67
2021/01/23 10:32:16;;;;;;;7.65;3.90;;;5.20;99.90;;;;;;5066099;28;20028;-68
2021/01/23 10:34:43;;;;;;;9.73;4.55;;;5.20;99.90;;;;;;5084079;28;20040;-68
2021/01/23 10:37:09;;;;;;;15.70;4.05;;;5.10;99.90;;;;;;5065811;28;20082;-67
2021/01/23 10:39:35;;;;;;;13.30;4.35;;;5.20;99.90;;;;;;5085021;28;20024;-66
2021/01/23 10:42:01;;;;;;;9.45;3.50;;;5.30;99.90;;;;;;5085184;28;20022;-67
2021/01/23 10:44:26;;;;;;;16.90;3.78;;;5.30;99.90;;;;;;5066602;28;20043;-67
2021/01/23 10:46:52;;;;;;;15.77;4.65;;;5.50;99.90;;;;;;5086151;28;20017;-67
2021/01/23 10:49:18;;;;;;;6.05;3.70;;;5.60;99.90;;;;;;5083379;28;20037;-69
2021/01/23 10:51:43;;;;;;;9.35;3.75;;;5.60;99.90;;;;;;5070522;28;20020;-67
2021/01/23 10:54:09;;;;;;;7.50;3.55;;;5.50;99.90;;;;;;5089239;28;20044;-67
2021/01/23 10:56:35;;;;;;;7.85;3.65;;;5.40;99.90;;;;;;5090275;28;20054;-67
2021/01/23 10:59:03;;;;;;;7.88;3.60;;;5.30;99.90;;;;;;5089775;28;20024;-68
2021/01/23 11:01:30;;;;;;;6.68;3.80;;;5.30;99.90;;;;;;5090013;28;20119;-66
2021/01/23 11:03:57;;;;;;;5.90;3.42;;;5.20;99.90;;;;;;5090508;28;20028;-67
2021/01/23 11:06:23;;;;;;;5.95;3.10;;;5.20;99.90;;;;;;5089146;28;20104;-67
2021/01/23 11:08:49;;;;;;;6.20;3.42;;;5.30;99.90;;;;;;5091962;28;20020;-69
2021/01/23 11:11:15;;;;;;;9.13;4.00;;;5.40;99.90;;;;;;5076568;28;20035;-67
2021/01/23 11:13:40;;;;;;;6.47;3.40;;;5.40;99.90;;;;;;5090278;28;20052;-68
2021/01/23 11:16:07;;;;;;;11.32;4.43;;;5.40;99.90;;;;;;5089911;28;20036;-67
2021/01/23 11:18:32;;;;;;;6.00;3.88;;;5.50;99.90;;;;;;5091075;28;20020;-67
2021/01/23 11:20:58;;;;;;;11.80;4.13;;;5.50;99.90;;;;;;5090376;28;20027;-67
2021/01/23 11:23:23;;;;;;;13.60;4.55;;;5.50;99.90;;;;;;5091372;28;20097;-68
2021/01/23 11:25:49;;;;;;;9.23;4.80;;;5.50;99.90;;;;;;5089670;28;21760;-67
2021/01/23 11:28:14;;;;;;;9.48;4.38;;;5.60;99.90;;;;;;5090978;28;20058;-67
2021/01/23 11:30:40;;;;;;;12.20;4.70;;;5.60;99.90;;;;;;5078795;28;20020;-68
2021/01/23 11:33:07;;;;;;;13.25;4.10;;;5.50;99.90;;;;;;5091105;28;20166;-66
2021/01/23 11:35:32;;;;;;;11.05;4.10;;;5.40;99.90;;;;;;5088886;28;20028;-67
2021/01/23 11:38:00;;;;;;;10.05;3.90;;;5.40;99.90;;;;;;5087972;28;20031;-67
2021/01/23 11:40:26;;;;;;;6.10;4.22;;;5.50;99.90;;;;;;5091233;28;20032;-68
2021/01/23 11:42:54;;;;;;;8.85;3.63;;;5.40;99.90;;;;;;5090701;28;20355;-67
2021/01/23 11:45:19;;;;;;;11.77;4.35;;;5.40;99.90;;;;;;5091220;28;20031;-71
2021/01/23 11:47:45;;;;;;;9.30;4.25;;;5.40;99.90;;;;;;5089588;28;20028;-68
2021/01/23 11:50:10;;;;;;;15.57;5.13;;;5.40;99.90;;;;;;5087297;28;20517;-66
2021/01/23 11:52:36;;;;;;;6.97;4.55;;;5.50;99.90;;;;;;5090008;28;20500;-68
2021/01/23 11:55:04;;;;;;;8.48;4.18;;;5.50;99.90;;;;;;5090764;28;20397;-68
2021/01/23 11:57:29;;;;;;;9.60;4.57;;;5.50;99.90;;;;;;5062845;28;20032;-69
2021/01/23 11:59:56;;;;;;;7.75;4.97;;;5.50;99.90;;;;;;5090124;28;20031;-69
2021/01/23 12:02:22;;;;;;;10.40;5.00;;;5.60;99.90;;;;;;5067079;28;20050;-66
2021/01/23 12:04:49;;;;;;;8.38;4.95;;;5.60;99.90;;;;;;5072126;28;20397;-68
2021/01/23 12:07:16;;;;;;;6.75;4.32;;;5.60;99.90;;;;;;5089585;28;20024;-69
2021/01/23 12:09:44;;;;;;;7.32;4.55;;;5.70;99.90;;;;;;5057519;28;20527;-68
2021/01/23 12:12:10;;;;;;;8.10;4.72;;;5.70;99.90;;;;;;5088566;28;20534;-69
2021/01/23 12:14:35;;;;;;;26.92;5.50;;;5.80;99.90;;;;;;5085224;28;20091;-68
2021/01/23 12:17:01;;;;;;;8.00;4.85;;;5.70;99.90;;;;;;5088742;28;20648;-69
2021/01/23 12:19:27;;;;;;;9.88;4.80;;;5.80;99.90;;;;;;5088382;28;20086;-67
2021/01/23 12:21:52;;;;;;;14.32;5.20;;;5.80;99.90;;;;;;5088961;28;20035;-69
2021/01/23 12:24:18;;;;;;;7.55;5.55;;;5.70;99.90;;;;;;5068070;28;20025;-70
2021/01/23 12:26:43;;;;;;;11.82;6.03;;;5.70;99.90;;;;;;5070472;28;20020;-69
2021/01/23 12:29:09;;;;;;;16.30;6.20;;;5.70;99.90;;;;;;5087045;28;20024;-68
2021/01/23 12:31:34;;;;;;;9.52;6.50;;;5.70;99.90;;;;;;5069644;28;20020;-68
2021/01/23 12:34:01;;;;;;;12.57;5.82;;;5.60;99.90;;;;;;5073156;28;20028;-69
2021/01/23 12:36:27;;;;;;;12.45;6.25;;;5.60;99.90;;;;;;5069182;28;20067;-69
2021/01/23 12:38:52;;;;;;;14.25;6.85;;;5.60;99.90;;;;;;5086342;28;20059;-71
2021/01/23 12:41:18;;;;;;;15.25;6.20;;;5.70;99.90;;;;;;5086061;28;20429;-69
2021/01/23 12:43:44;;;;;;;14.55;5.78;;;5.70;99.90;;;;;;5087173;28;20409;-70
2021/01/23 12:46:10;;;;;;;17.23;6.05;;;5.80;99.90;;;;;;5069454;28;20077;-68
2021/01/23 12:48:36;;;;;;;13.80;5.93;;;5.90;99.90;;;;;;5087606;28;20039;-67
2021/01/23 12:51:02;;;;;;;11.93;6.22;;;6.10;99.90;;;;;;5080818;28;20020;-69